createdAt,value
2019-04-06T00:02:13.037Z,100824.52
2019-04-06T00:04:42.351Z,100814.89
2019-04-06T00:07:11.633Z,100801.42
2019-04-06T00:09:40.944Z,100801.42
2019-04-06T00:12:10.211Z,100814.43
2019-04-06T00:14:39.516Z,100811.03
2019-04-06T00:17:08.805Z,100811.03
2019-04-06T00:19:38.150Z,100824.59
2019-04-06T00:22:07.371Z,100829.03
2019-04-06T00:24:36.642Z,100828.64
2019-04-06T00:27:05.907Z,100829.50
2019-04-06T00:29:35.191Z,100827.75
2019-04-06T00:32:32.211Z,100827.75
2019-04-06T00:35:01.527Z,100824.74
2019-04-06T00:37:30.913Z,100824.34
2019-04-06T00:40:00.225Z,100821.31
2019-04-06T00:42:29.535Z,100829.22
2019-04-06T00:44:58.821Z,100834.04
2019-04-06T00:47:28.129Z,100831.43
2019-04-06T00:49:57.427Z,100831.95
2019-04-06T00:52:26.693Z,100821.92
2019-04-06T00:54:56.039Z,100827.91
2019-04-06T00:57:25.298Z,100828.39
2019-04-06T00:59:54.563Z,100829.72
2019-04-06T01:02:23.827Z,100826.25
2019-04-06T01:04:53.093Z,100828.52
2019-04-06T01:07:23.243Z,100823.30
2019-04-06T01:09:51.598Z,100824.25
2019-04-06T01:12:20.965Z,100822.50
2019-04-06T01:14:50.217Z,100823.52
2019-04-06T01:17:19.573Z,100823.45
2019-04-06T01:19:48.868Z,100823.45
2019-04-06T01:22:18.181Z,100842.84
2019-04-06T01:24:47.471Z,100833.67
2019-04-06T01:27:16.780Z,100841.63
2019-04-06T01:29:46.007Z,100841.63
2019-04-06T01:32:15.478Z,100835.56
2019-04-06T01:34:44.737Z,100840.01
2019-04-06T01:37:14.047Z,100840.93
2019-04-06T01:39:43.371Z,100846.23
2019-04-06T01:42:12.611Z,100838.86
2019-04-06T01:44:41.903Z,100838.86
2019-04-06T01:47:11.229Z,100840.58
2019-04-06T01:49:40.628Z,100838.86
2019-04-06T01:52:09.861Z,100835.77
2019-04-06T01:54:39.113Z,100838.41
2019-04-06T01:57:08.403Z,100836.72
2019-04-06T01:59:37.671Z,100836.26
2019-04-06T02:02:18.093Z,100839.33
2019-04-06T02:04:47.349Z,100839.35
2019-04-06T02:07:16.595Z,100839.33
2019-04-06T02:09:45.885Z,100845.46
2019-04-06T02:12:15.239Z,100840.64
2019-04-06T02:14:44.526Z,100846.78
2019-04-06T02:17:13.782Z,100838.01
2019-04-06T02:19:43.057Z,100834.48
2019-04-06T02:22:12.357Z,100834.48
2019-04-06T02:24:41.633Z,100841.59
2019-04-06T02:27:10.934Z,100838.98
2019-04-06T02:29:40.218Z,100833.77
2019-04-06T02:32:40.810Z,100826.72
2019-04-06T02:35:21.975Z,100826.72
2019-04-06T02:38:03.710Z,100821.81
2019-04-06T02:40:44.041Z,100823.16
2019-04-06T02:43:18.989Z,100823.16
2019-04-06T02:45:48.233Z,100819.69
2019-04-06T02:48:17.541Z,100814.88
2019-04-06T02:50:46.890Z,100815.34
2019-04-06T02:53:16.057Z,100828.15
2019-04-06T02:55:45.342Z,100843.57
2019-04-06T02:58:14.588Z,100832.22
2019-04-06T03:00:43.899Z,100828.04
2019-04-06T03:03:13.121Z,100828.04
2019-04-06T03:05:42.390Z,100830.62
2019-04-06T03:08:11.653Z,100830.30
2019-04-06T03:10:41.061Z,100830.84
2019-04-06T03:13:10.311Z,100829.66
2019-04-06T03:15:39.440Z,100822.84
2019-04-06T03:18:08.718Z,100823.89
2019-04-06T03:20:37.977Z,100821.91
2019-04-06T03:23:07.245Z,100829.98
2019-04-06T03:25:36.666Z,100822.66
2019-04-06T03:28:05.761Z,100824.59
2019-04-06T03:30:34.984Z,100823.44
2019-04-06T03:33:04.591Z,100824.83
2019-04-06T03:35:33.534Z,100831.92
2019-04-06T03:38:02.793Z,100827.16
2019-04-06T03:40:32.155Z,100834.22
2019-04-06T03:43:01.294Z,100834.70
2019-04-06T03:45:30.555Z,100835.23
2019-04-06T03:47:59.925Z,100835.23
2019-04-06T03:50:29.130Z,100829.61
2019-04-06T03:52:58.358Z,100825.34
2019-04-06T03:55:27.586Z,100821.94
2019-04-06T03:57:56.873Z,100814.20
2019-04-06T04:00:26.173Z,100811.71
2019-04-06T04:02:55.502Z,100810.95
2019-04-06T04:05:24.915Z,100817.59
2019-04-06T04:07:54.180Z,100810.66
2019-04-06T04:10:31.178Z,100809.87
2019-04-06T04:13:00.411Z,100809.94
2019-04-06T04:15:29.657Z,100807.84
2019-04-06T04:17:58.871Z,100809.69
2019-04-06T04:20:28.157Z,100804.04
2019-04-06T04:22:57.414Z,100808.98
2019-04-06T04:25:26.683Z,100811.23
2019-04-06T04:27:55.906Z,100802.94
2019-04-06T04:30:32.293Z,100802.95
2019-04-06T04:32:54.417Z,100806.52
2019-04-06T04:35:23.835Z,100804.39
2019-04-06T04:37:53.007Z,100797.91
2019-04-06T04:40:22.282Z,100801.45
2019-04-06T04:42:51.601Z,100793.64
2019-04-06T04:45:20.884Z,100789.30
2019-04-06T04:47:50.551Z,100791.95
2019-04-06T04:50:19.487Z,100798.14
2019-04-06T04:52:48.738Z,100797.33
2019-04-06T04:55:18.089Z,100796.94
2019-04-06T04:57:47.366Z,100797.81
2019-04-06T05:00:16.708Z,100797.01
2019-04-06T05:02:46.011Z,100804.44
2019-04-06T05:05:15.232Z,100804.44
2019-04-06T05:07:44.582Z,100804.44
2019-04-06T05:10:13.888Z,100801.83
2019-04-06T05:12:43.223Z,100802.27
2019-04-06T05:15:13.494Z,100801.35
2019-04-06T05:17:42.745Z,100810.55
2019-04-06T05:20:12.019Z,100814.05
2019-04-06T05:22:41.280Z,100810.95
2019-04-06T05:25:10.525Z,100822.77
2019-04-06T05:27:50.771Z,100824.08
2019-04-06T05:30:09.001Z,100829.67
2019-04-06T05:32:38.325Z,100833.47
2019-04-06T05:35:07.748Z,100837.67
2019-04-06T05:37:37.023Z,100837.36
2019-04-06T05:40:06.416Z,100838.20
2019-04-06T05:42:35.753Z,100837.02
2019-04-06T05:45:05.871Z,100844.72
2019-04-06T05:47:35.156Z,100843.36
2019-04-06T05:50:04.906Z,100842.85
2019-04-06T05:52:34.181Z,100840.73
2019-04-06T05:55:03.551Z,100847.70
2019-04-06T05:57:32.850Z,100838.34
2019-04-06T06:00:02.005Z,100844.38
2019-04-06T06:02:31.287Z,100838.62
2019-04-06T06:05:01.279Z,100836.33
2019-04-06T06:07:29.808Z,100839.13
2019-04-06T06:09:59.031Z,100842.49
2019-04-06T06:12:28.274Z,100842.49
2019-04-06T06:15:00.178Z,100843.14
2019-04-06T06:17:26.831Z,100847.77
2019-04-06T06:19:56.027Z,100850.25
2019-04-06T06:22:25.373Z,100839.06
2019-04-06T06:24:54.645Z,100845.02
2019-04-06T06:27:23.994Z,100846.06
2019-04-06T06:29:53.384Z,100846.06
2019-04-06T06:32:22.600Z,100842.48
2019-04-06T20:15:33.538Z,100619.73
2019-04-06T20:18:02.245Z,100622.20
2019-04-06T20:20:31.528Z,100627.30
2019-04-06T20:23:01.039Z,100620.07
2019-04-06T20:25:30.645Z,100625.17
2019-04-06T20:27:59.790Z,100620.09
2019-04-06T20:30:29.049Z,100618.64
2019-04-06T20:32:58.497Z,100615.41
2019-04-06T20:35:27.840Z,100614.88
2019-04-06T20:37:57.226Z,100616.45
2019-04-06T20:40:26.554Z,100612.44
2019-04-06T20:42:56.300Z,100614.01
2019-04-06T20:45:25.153Z,100611.22
2019-04-06T20:47:54.826Z,100616.30
2019-04-06T20:50:23.754Z,100614.84
2019-04-06T20:52:53.406Z,100621.66
2019-04-06T20:55:22.480Z,100616.20
2019-04-06T20:57:51.841Z,100614.64
2019-04-06T21:00:21.129Z,100619.58
2019-04-06T21:02:51.027Z,100622.24
2019-04-06T21:05:19.718Z,100620.44
2019-04-06T21:07:49.517Z,100616.82
2019-04-06T21:10:19.061Z,100618.08
2019-04-06T21:12:47.660Z,100614.64
2019-04-06T21:15:20.952Z,100613.23
2019-04-06T21:17:46.248Z,100615.91
2019-04-06T21:20:15.781Z,100618.08
2019-04-06T21:22:45.222Z,100615.59
2019-04-06T21:25:14.738Z,100615.48
2019-04-06T21:27:44.170Z,100613.10
2019-04-06T21:30:13.495Z,100615.45
2019-04-06T21:32:42.484Z,100612.08
2019-04-06T21:35:11.543Z,100611.88
2019-04-06T21:37:41.206Z,100612.04
2019-04-06T21:40:10.202Z,100611.25
2019-04-06T21:42:39.486Z,100608.83
2019-04-06T21:45:09.381Z,100604.53
2019-04-06T21:47:38.695Z,100614.80
2019-04-06T21:50:08.557Z,100607.93
2019-04-06T21:52:37.064Z,100607.52
2019-04-06T21:55:06.165Z,100603.70
2019-04-06T21:57:35.595Z,100609.08
2019-04-06T22:00:05.749Z,100610.99
2019-04-06T22:02:35.399Z,100620.77
2019-04-06T22:05:04.543Z,100619.98
2019-04-06T22:07:33.629Z,100621.31
2019-04-06T22:10:02.732Z,100611.39
2019-04-06T22:12:32.151Z,100615.00
2019-04-06T22:15:01.309Z,100616.08
2019-04-06T22:17:32.970Z,100616.72
2019-04-06T22:20:00.003Z,100615.99
2019-04-06T22:22:29.413Z,100610.46
2019-04-06T22:24:58.712Z,100622.20
2019-04-06T22:27:28.036Z,100614.45
2019-04-06T22:29:57.320Z,100615.95
2019-04-06T22:32:26.578Z,100618.83
2019-04-06T22:34:55.907Z,100622.59
2019-04-06T22:37:25.595Z,100617.98
2019-04-06T22:39:54.486Z,100618.14
2019-04-06T22:42:23.888Z,100616.08
2019-04-06T22:45:08.509Z,100618.58
2019-04-06T22:47:25.314Z,100610.30
2019-04-06T22:49:54.622Z,100614.91
2019-04-06T22:52:23.874Z,100611.08
2019-04-06T22:54:52.678Z,100608.58
2019-04-06T22:57:21.940Z,100612.72
2019-04-06T22:59:51.289Z,100612.88
2019-04-06T23:02:20.617Z,100612.58
2019-04-06T23:05:00.112Z,100619.00
2019-04-06T23:07:29.247Z,100614.76
2019-04-06T23:09:58.732Z,100618.95
2019-04-06T23:12:27.735Z,100615.22
2019-04-06T23:14:56.912Z,100617.23
2019-04-06T23:17:26.248Z,100620.95
2019-04-06T23:19:55.629Z,100622.09
2019-04-06T23:22:25.107Z,100620.07
2019-04-06T23:24:54.790Z,100618.51
2019-04-06T23:27:24.292Z,100621.31
2019-04-06T23:29:53.413Z,100622.38
2019-04-06T23:32:22.125Z,100624.79
2019-04-06T23:34:58.778Z,100628.89
2019-04-06T23:37:20.697Z,100633.48
2019-04-06T23:39:50.453Z,100637.14
2019-04-06T23:42:19.444Z,100634.10
2019-04-06T23:44:48.768Z,100631.59
2019-04-06T23:47:18.118Z,100632.51
2019-04-06T23:49:47.122Z,100639.28
2019-04-06T23:52:16.439Z,100627.97
2019-04-06T23:54:46.254Z,100634.65
2019-04-06T23:57:15.149Z,100642.37
2019-04-06T23:59:44.413Z,100639.06
